sensor_id;sensor_type;location;lat;lon;timestamp;pressure;altitude;pressure_sealevel;temperature;humidity
61337;BME280;47212;41.326;2.104;2023-01-27T00:02:14;101183.25;;;7.37;56.44
61337;BME280;47212;41.326;2.104;2023-01-27T00:07:25;101179.13;;;7.34;56.08
61337;BME280;47212;41.326;2.104;2023-01-27T00:12:31;101162.50;;;7.31;56.65
61337;BME280;47212;41.326;2.104;2023-01-27T00:17:54;101172.97;;;7.27;56.39
61337;BME280;47212;41.326;2.104;2023-01-27T00:23:02;101165.06;;;7.26;56.07
61337;BME280;47212;41.326;2.104;2023-01-27T00:28:28;101158.00;;;7.25;56.50
61337;BME280;47212;41.326;2.104;2023-01-27T00:33:37;101146.34;;;7.24;56.41
61337;BME280;47212;41.326;2.104;2023-01-27T00:38:51;101149.53;;;7.21;56.49
61337;BME280;47212;41.326;2.104;2023-01-27T00:44:07;101141.03;;;7.18;56.40
61337;BME280;47212;41.326;2.104;2023-01-27T00:49:29;101136.53;;;7.12;56.32
61337;BME280;47212;41.326;2.104;2023-01-27T00:54:34;101126.63;;;7.06;56.03
61337;BME280;47212;41.326;2.104;2023-01-27T00:59:46;101129.19;;;7.00;56.48
61337;BME280;47212;41.326;2.104;2023-01-27T01:04:53;101124.25;;;6.97;55.98
61337;BME280;47212;41.326;2.104;2023-01-27T01:10:07;101120.31;;;6.93;56.99
61337;BME280;47212;41.326;2.104;2023-01-27T01:15:29;101118.66;;;6.92;55.70
61337;BME280;47212;41.326;2.104;2023-01-27T01:20:55;101121.47;;;6.86;56.56
61337;BME280;47212;41.326;2.104;2023-01-27T01:26:11;101117.69;;;6.87;56.55
61337;BME280;47212;41.326;2.104;2023-01-27T01:31:22;101108.16;;;6.84;56.57
61337;BME280;47212;41.326;2.104;2023-01-27T01:36:28;101109.66;;;6.80;56.74
61337;BME280;47212;41.326;2.104;2023-01-27T01:41:33;101111.78;;;6.78;56.36
61337;BME280;47212;41.326;2.104;2023-01-27T01:46:38;101102.94;;;6.71;56.31
61337;BME280;47212;41.326;2.104;2023-01-27T01:51:50;101115.41;;;6.72;56.35
61337;BME280;47212;41.326;2.104;2023-01-27T01:57:14;101111.28;;;6.69;56.34
61337;BME280;47212;41.326;2.104;2023-01-27T02:02:24;101117.38;;;6.65;55.55
61337;BME280;47212;41.326;2.104;2023-01-27T02:08:28;101108.06;;;6.61;55.95
61337;BME280;47212;41.326;2.104;2023-01-27T02:13:13;101107.22;;;6.60;55.20
61337;BME280;47212;41.326;2.104;2023-01-27T02:20:43;101107.91;;;6.56;55.41
61337;BME280;47212;41.326;2.104;2023-01-27T02:26:27;101106.47;;;6.53;56.41
61337;BME280;47212;41.326;2.104;2023-01-27T02:31:31;101097.69;;;6.58;55.69
61337;BME280;47212;41.326;2.104;2023-01-27T02:36:41;101097.69;;;6.58;55.22
61337;BME280;47212;41.326;2.104;2023-01-27T02:41:51;101090.16;;;6.60;56.44
61337;BME280;47212;41.326;2.104;2023-01-27T02:47:20;101089.94;;;6.61;55.89
61337;BME280;47212;41.326;2.104;2023-01-27T02:52:25;101085.59;;;6.60;55.85
61337;BME280;47212;41.326;2.104;2023-01-27T02:57:35;101088.06;;;6.62;56.13
61337;BME280;47212;41.326;2.104;2023-01-27T03:02:58;101084.94;;;6.47;56.94
61337;BME280;47212;41.326;2.104;2023-01-27T03:08:01;101074.63;;;6.00;58.03
61337;BME280;47212;41.326;2.104;2023-01-27T03:13:07;101074.50;;;5.89;57.47
61337;BME280;47212;41.326;2.104;2023-01-27T03:18:14;101070.19;;;6.06;57.15
61337;BME280;47212;41.326;2.104;2023-01-27T03:23:41;101075.63;;;6.24;56.80
61337;BME280;47212;41.326;2.104;2023-01-27T03:28:50;101074.28;;;6.33;56.49
61337;BME280;47212;41.326;2.104;2023-01-27T03:34:23;101081.47;;;6.39;56.13
61337;BME280;47212;41.326;2.104;2023-01-27T03:39:38;101076.22;;;6.45;56.27
61337;BME280;47212;41.326;2.104;2023-01-27T03:45:00;101076.97;;;6.52;56.06
61337;BME280;47212;41.326;2.104;2023-01-27T03:50:30;101079.81;;;6.57;55.57
61337;BME280;47212;41.326;2.104;2023-01-27T03:55:57;101076.03;;;6.58;55.50
61337;BME280;47212;41.326;2.104;2023-01-27T04:01:26;101069.44;;;6.54;55.74
61337;BME280;47212;41.326;2.104;2023-01-27T04:06:33;101064.72;;;6.49;55.64
61337;BME280;47212;41.326;2.104;2023-01-27T04:12:02;101068.25;;;6.50;55.04
61337;BME280;47212;41.326;2.104;2023-01-27T04:17:20;101067.88;;;6.46;54.95
61337;BME280;47212;41.326;2.104;2023-01-27T04:22:29;101070.34;;;6.48;54.72
61337;BME280;47212;41.326;2.104;2023-01-27T04:27:36;101064.94;;;6.48;54.73
61337;BME280;47212;41.326;2.104;2023-01-27T04:32:44;101065.31;;;6.51;54.46
61337;BME280;47212;41.326;2.104;2023-01-27T04:38:03;101072.16;;;6.54;54.36
61337;BME280;47212;41.326;2.104;2023-01-27T04:43:06;101060.88;;;6.57;54.52
61337;BME280;47212;41.326;2.104;2023-01-27T04:48:15;101056.88;;;6.59;54.02
61337;BME280;47212;41.326;2.104;2023-01-27T04:53:20;101061.00;;;6.62;53.66
61337;BME280;47212;41.326;2.104;2023-01-27T04:58:24;101058.69;;;6.65;54.33
61337;BME280;47212;41.326;2.104;2023-01-27T05:18:50;101060.19;;;7.21;52.79
61337;BME280;47212;41.326;2.104;2023-01-27T05:23:52;101062.25;;;7.08;52.71
61337;BME280;47212;41.326;2.104;2023-01-27T05:28:57;101067.41;;;6.97;52.07
61337;BME280;47212;41.326;2.104;2023-01-27T05:34:01;101068.53;;;6.90;52.55
61337;BME280;47212;41.326;2.104;2023-01-27T05:39:03;101069.09;;;6.80;52.48
61337;BME280;47212;41.326;2.104;2023-01-27T05:44:10;101064.81;;;6.72;52.30
61337;BME280;47212;41.326;2.104;2023-01-27T05:49:12;101083.63;;;6.67;52.46
61337;BME280;47212;41.326;2.104;2023-01-27T05:54:17;101067.72;;;6.59;52.34
61337;BME280;47212;41.326;2.104;2023-01-27T05:59:19;101085.22;;;6.57;52.74
61337;BME280;47212;41.326;2.104;2023-01-27T06:04:26;101070.94;;;6.50;53.16
61337;BME280;47212;41.326;2.104;2023-01-27T06:09:28;101073.75;;;6.43;53.26
61337;BME280;47212;41.326;2.104;2023-01-27T06:14:29;101073.97;;;6.42;53.12
61337;BME280;47212;41.326;2.104;2023-01-27T06:19:31;101079.59;;;6.40;52.88
61337;BME280;47212;41.326;2.104;2023-01-27T06:24:34;101067.97;;;6.39;53.01
61337;BME280;47212;41.326;2.104;2023-01-27T06:29:36;101075.47;;;6.37;52.73
61337;BME280;47212;41.326;2.104;2023-01-27T06:34:38;101083.00;;;6.35;53.05
61337;BME280;47212;41.326;2.104;2023-01-27T06:39:48;101074.72;;;6.30;53.33
61337;BME280;47212;41.326;2.104;2023-01-27T06:44:51;101086.00;;;6.27;53.50
61337;BME280;47212;41.326;2.104;2023-01-27T06:49:53;101081.03;;;6.24;52.97
61337;BME280;47212;41.326;2.104;2023-01-27T06:54:55;101077.22;;;6.14;53.81
61337;BME280;47212;41.326;2.104;2023-01-27T06:59:57;101084.66;;;5.68;55.07
61337;BME280;47212;41.326;2.104;2023-01-27T07:04:59;101084.91;;;5.42;55.23
61337;BME280;47212;41.326;2.104;2023-01-27T07:10:02;101087.09;;;5.52;54.85
61337;BME280;47212;41.326;2.104;2023-01-27T07:15:04;101096.09;;;5.70;55.44
61337;BME280;47212;41.326;2.104;2023-01-27T07:20:07;101084.69;;;5.87;55.11
61337;BME280;47212;41.326;2.104;2023-01-27T07:25:12;101086.47;;;5.99;53.90
61337;BME280;47212;41.326;2.104;2023-01-27T07:30:15;101092.44;;;6.08;53.83
61337;BME280;47212;41.326;2.104;2023-01-27T07:35:17;101084.50;;;6.13;53.85
61337;BME280;47212;41.326;2.104;2023-01-27T07:40:19;101093.34;;;6.20;53.23
61337;BME280;47212;41.326;2.104;2023-01-27T07:45:21;101099.28;;;6.29;53.14
61337;BME280;47212;41.326;2.104;2023-01-27T07:50:29;101101.31;;;6.33;52.90
61337;BME280;47212;41.326;2.104;2023-01-27T07:55:31;101102.50;;;6.37;52.68
61337;BME280;47212;41.326;2.104;2023-01-27T08:00:34;101095.16;;;6.45;52.31
61337;BME280;47212;41.326;2.104;2023-01-27T08:05:36;101096.84;;;6.57;52.56
61337;BME280;47212;41.326;2.104;2023-01-27T08:10:51;101118.09;;;6.72;52.32
61337;BME280;47212;41.326;2.104;2023-01-27T08:15:58;101118.97;;;6.84;52.02
61337;BME280;47212;41.326;2.104;2023-01-27T08:21:05;101109.09;;;7.08;51.32
61337;BME280;47212;41.326;2.104;2023-01-27T08:26:07;101121.75;;;7.26;51.20
61337;BME280;47212;41.326;2.104;2023-01-27T08:31:11;101135.44;;;7.31;50.98
61337;BME280;47212;41.326;2.104;2023-01-27T08:36:15;101131.81;;;7.49;50.13
61337;BME280;47212;41.326;2.104;2023-01-27T08:41:20;101138.72;;;8.10;49.48
61337;BME280;47212;41.326;2.104;2023-01-27T08:46:26;101145.09;;;8.04;49.12
61337;BME280;47212;41.326;2.104;2023-01-27T08:51:28;101144.38;;;8.55;48.16
61337;BME280;47212;41.326;2.104;2023-01-27T08:56:30;101148.81;;;9.13;46.88
61337;BME280;47212;41.326;2.104;2023-01-27T09:01:32;101160.78;;;9.57;46.52
61337;BME280;47212;41.326;2.104;2023-01-27T09:06:34;101160.25;;;9.43;46.39
61337;BME280;47212;41.326;2.104;2023-01-27T09:11:39;101164.13;;;9.19;46.65
61337;BME280;47212;41.326;2.104;2023-01-27T09:16:41;101179.94;;;8.93;47.08
61337;BME280;47212;41.326;2.104;2023-01-27T09:21:43;101174.09;;;8.73;47.01
61337;BME280;47212;41.326;2.104;2023-01-27T09:26:45;101177.75;;;8.67;46.94
61337;BME280;47212;41.326;2.104;2023-01-27T09:31:50;101180.56;;;8.84;45.76
61337;BME280;47212;41.326;2.104;2023-01-27T09:36:56;101184.59;;;9.10;45.65
61337;BME280;47212;41.326;2.104;2023-01-27T10:03:35;101180.56;;;10.53;42.29
61337;BME280;47212;41.326;2.104;2023-01-27T10:24:55;101189.56;;;12.00;41.29
61337;BME280;47212;41.326;2.104;2023-01-27T10:35:12;101187.38;;;12.86;39.34
61337;BME280;47212;41.326;2.104;2023-01-27T10:40:39;101181.81;;;13.23;39.13
61337;BME280;47212;41.326;2.104;2023-01-27T10:51:34;101183.78;;;13.48;38.55
61337;BME280;47212;41.326;2.104;2023-01-27T11:01:47;101180.44;;;13.21;40.00
61337;BME280;47212;41.326;2.104;2023-01-27T11:06:51;101171.91;;;13.12;40.39
61337;BME280;47212;41.326;2.104;2023-01-27T11:11:58;101173.56;;;13.13;39.44
61337;BME280;47212;41.326;2.104;2023-01-27T11:17:19;101170.41;;;13.57;39.02
61337;BME280;47212;41.326;2.104;2023-01-27T11:22:59;101178.66;;;14.02;37.87
61337;BME280;47212;41.326;2.104;2023-01-27T11:28:28;101163.00;;;14.39;37.65
61337;BME280;47212;41.326;2.104;2023-01-27T11:38:41;101152.28;;;14.62;40.19
61337;BME280;47212;41.326;2.104;2023-01-27T11:43:43;101152.19;;;14.88;39.79
61337;BME280;47212;41.326;2.104;2023-01-27T11:48:50;101140.59;;;15.06;39.15
61337;BME280;47212;41.326;2.104;2023-01-27T11:54:17;101134.25;;;15.11;38.58
61337;BME280;47212;41.326;2.104;2023-01-27T11:59:24;101134.78;;;15.13;39.74
61337;BME280;47212;41.326;2.104;2023-01-27T12:04:48;101131.81;;;15.09;41.13
61337;BME280;47212;41.326;2.104;2023-01-27T12:09:52;101124.03;;;15.21;42.45
61337;BME280;47212;41.326;2.104;2023-01-27T12:14:55;101121.28;;;15.26;41.52
61337;BME280;47212;41.326;2.104;2023-01-27T12:20:01;101116.75;;;15.02;40.94
61337;BME280;47212;41.326;2.104;2023-01-27T12:25:26;101117.06;;;15.00;41.27
61337;BME280;47212;41.326;2.104;2023-01-27T12:30:33;101118.75;;;14.91;41.63
61337;BME280;47212;41.326;2.104;2023-01-27T12:35:38;101118.94;;;14.20;43.40
61337;BME280;47212;41.326;2.104;2023-01-27T12:40:42;101114.34;;;13.90;44.12
61337;BME280;47212;41.326;2.104;2023-01-27T12:51:12;101113.50;;;13.33;46.12
61337;BME280;47212;41.326;2.104;2023-01-27T12:56:20;101110.22;;;13.36;46.44
61337;BME280;47212;41.326;2.104;2023-01-27T13:01:29;101116.22;;;13.28;46.43
61337;BME280;47212;41.326;2.104;2023-01-27T13:06:56;101107.75;;;12.52;50.17
61337;BME280;47212;41.326;2.104;2023-01-27T13:12:14;101098.06;;;12.24;50.27
61337;BME280;47212;41.326;2.104;2023-01-27T13:17:50;101099.88;;;12.66;50.52
61337;BME280;47212;41.326;2.104;2023-01-27T13:23:00;101093.97;;;12.99;48.80
61337;BME280;47212;41.326;2.104;2023-01-27T13:28:06;101091.47;;;12.88;48.76
61337;BME280;47212;41.326;2.104;2023-01-27T13:33:42;101086.63;;;13.05;50.53
61337;BME280;47212;41.326;2.104;2023-01-27T13:38:51;101093.25;;;13.19;49.13
61337;BME280;47212;41.326;2.104;2023-01-27T13:44:00;101094.84;;;13.10;51.93
61337;BME280;47212;41.326;2.104;2023-01-27T13:49:28;101106.19;;;12.76;54.97
61337;BME280;47212;41.326;2.104;2023-01-27T13:54:32;101108.16;;;12.24;54.40
61337;BME280;47212;41.326;2.104;2023-01-27T13:59:47;101113.28;;;11.78;58.90
61337;BME280;47212;41.326;2.104;2023-01-27T14:05:23;101104.88;;;11.53;58.49
61337;BME280;47212;41.326;2.104;2023-01-27T14:16:25;101111.09;;;11.48;58.78
61337;BME280;47212;41.326;2.104;2023-01-27T14:21:36;101112.44;;;11.45;57.89
61337;BME280;47212;41.326;2.104;2023-01-27T14:26:54;101114.47;;;11.28;58.30
61337;BME280;47212;41.326;2.104;2023-01-27T14:48:23;101118.94;;;11.39;59.76
61337;BME280;47212;41.326;2.104;2023-01-27T14:58:49;101129.78;;;11.34;59.44
61337;BME280;47212;41.326;2.104;2023-01-27T15:30:34;101144.81;;;11.15;59.38
61337;BME280;47212;41.326;2.104;2023-01-27T15:35:41;101152.44;;;10.91;59.47
61337;BME280;47212;41.326;2.104;2023-01-27T15:40:59;101156.06;;;10.75;60.73
61337;BME280;47212;41.326;2.104;2023-01-27T15:46:23;101155.69;;;10.66;61.70
61337;BME280;47212;41.326;2.104;2023-01-27T15:51:34;101158.09;;;10.63;60.28
61337;BME280;47212;41.326;2.104;2023-01-27T15:56:39;101156.13;;;10.58;60.09
61337;BME280;47212;41.326;2.104;2023-01-27T16:01:42;101158.28;;;10.56;59.92
61337;BME280;47212;41.326;2.104;2023-01-27T16:06:48;101172.44;;;10.58;61.81
61337;BME280;47212;41.326;2.104;2023-01-27T16:12:02;101183.03;;;10.55;62.01
61337;BME280;47212;41.326;2.104;2023-01-27T16:17:22;101174.97;;;10.43;62.19
61337;BME280;47212;41.326;2.104;2023-01-27T16:22:25;101176.44;;;10.34;61.67
61337;BME280;47212;41.326;2.104;2023-01-27T16:32:47;101183.78;;;10.33;62.12
61337;BME280;47212;41.326;2.104;2023-01-27T16:43:26;101191.63;;;10.46;62.48
61337;BME280;47212;41.326;2.104;2023-01-27T16:48:42;101198.53;;;10.54;62.35
61337;BME280;47212;41.326;2.104;2023-01-27T16:53:50;101202.41;;;10.58;61.81
61337;BME280;47212;41.326;2.104;2023-01-27T16:59:06;101207.91;;;10.63;60.29
61337;BME280;47212;41.326;2.104;2023-01-27T17:04:16;101207.41;;;10.66;60.69
61337;BME280;47212;41.326;2.104;2023-01-27T17:09:26;101212.59;;;10.68;60.05
61337;BME280;47212;41.326;2.104;2023-01-27T17:14:36;101216.97;;;10.69;60.48
61337;BME280;47212;41.326;2.104;2023-01-27T17:19:46;101216.16;;;10.68;60.96
61337;BME280;47212;41.326;2.104;2023-01-27T17:24:51;101226.47;;;10.66;60.32
61337;BME280;47212;41.326;2.104;2023-01-27T17:30:02;101229.69;;;10.63;60.95
61337;BME280;47212;41.326;2.104;2023-01-27T17:35:06;101238.88;;;10.57;60.13
61337;BME280;47212;41.326;2.104;2023-01-27T17:40:13;101254.63;;;10.55;60.03
61337;BME280;47212;41.326;2.104;2023-01-27T17:45:28;101249.94;;;10.50;59.83
61337;BME280;47212;41.326;2.104;2023-01-27T17:50:33;101258.25;;;10.44;59.16
61337;BME280;47212;41.326;2.104;2023-01-27T17:55:38;101265.84;;;10.42;58.99
61337;BME280;47212;41.326;2.104;2023-01-27T18:00:44;101270.94;;;10.38;58.87
61337;BME280;47212;41.326;2.104;2023-01-27T18:05:47;101276.88;;;10.35;58.47
61337;BME280;47212;41.326;2.104;2023-01-27T18:10:52;101282.81;;;10.32;58.17
61337;BME280;47212;41.326;2.104;2023-01-27T18:16:13;101280.84;;;10.28;58.70
61337;BME280;47212;41.326;2.104;2023-01-27T18:21:24;101285.69;;;10.26;58.28
61337;BME280;47212;41.326;2.104;2023-01-27T18:31:36;101299.78;;;10.23;58.09
61337;BME280;47212;41.326;2.104;2023-01-27T18:37:35;101294.81;;;10.19;58.11
61337;BME280;47212;41.326;2.104;2023-01-27T18:42:14;101295.31;;;10.16;57.97
61337;BME280;47212;41.326;2.104;2023-01-27T18:52:19;101309.81;;;10.05;59.01
61337;BME280;47212;41.326;2.104;2023-01-27T18:57:21;101312.44;;;10.00;59.37
61337;BME280;47212;41.326;2.104;2023-01-27T19:02:23;101307.38;;;9.92;59.07
61337;BME280;47212;41.326;2.104;2023-01-27T19:07:25;101306.81;;;9.90;59.16
61337;BME280;47212;41.326;2.104;2023-01-27T19:12:27;101306.97;;;9.83;59.10
61337;BME280;47212;41.326;2.104;2023-01-27T19:17:31;101308.28;;;9.81;59.25
61337;BME280;47212;41.326;2.104;2023-01-27T19:22:33;101325.06;;;9.78;58.86
61337;BME280;47212;41.326;2.104;2023-01-27T19:27:41;101321.44;;;9.72;58.84
61337;BME280;47212;41.326;2.104;2023-01-27T19:32:44;101329.47;;;9.67;59.26
61337;BME280;47212;41.326;2.104;2023-01-27T19:37:46;101328.31;;;9.63;58.49
61337;BME280;47212;41.326;2.104;2023-01-27T19:42:49;101327.16;;;9.59;59.02
61337;BME280;47212;41.326;2.104;2023-01-27T19:47:51;101331.41;;;9.55;58.87
61337;BME280;47212;41.326;2.104;2023-01-27T19:52:53;101325.84;;;9.50;58.49
61337;BME280;47212;41.326;2.104;2023-01-27T19:57:55;101321.13;;;9.45;58.92
61337;BME280;47212;41.326;2.104;2023-01-27T20:02:57;101325.66;;;9.40;58.91
61337;BME280;47212;41.326;2.104;2023-01-27T20:08:02;101319.88;;;9.36;59.16
61337;BME280;47212;41.326;2.104;2023-01-27T20:13:14;101328.50;;;9.33;59.53
61337;BME280;47212;41.326;2.104;2023-01-27T20:18:17;101334.31;;;9.25;59.94
61337;BME280;47212;41.326;2.104;2023-01-27T20:23:19;101327.59;;;9.16;60.06
61337;BME280;47212;41.326;2.104;2023-01-27T20:28:21;101326.31;;;9.07;59.95
61337;BME280;47212;41.326;2.104;2023-01-27T20:33:23;101325.50;;;8.94;60.00
61337;BME280;47212;41.326;2.104;2023-01-27T20:38:25;101328.56;;;8.86;59.98
61337;BME280;47212;41.326;2.104;2023-01-27T20:43:28;101336.22;;;8.78;59.22
61337;BME280;47212;41.326;2.104;2023-01-27T20:48:36;101331.84;;;8.65;59.62
61337;BME280;47212;41.326;2.104;2023-01-27T20:53:39;101336.56;;;8.58;59.72
61337;BME280;47212;41.326;2.104;2023-01-27T20:58:46;101352.13;;;8.51;59.90
61337;BME280;47212;41.326;2.104;2023-01-27T21:03:48;101355.63;;;8.40;60.37
61337;BME280;47212;41.326;2.104;2023-01-27T21:08:51;101360.31;;;8.32;59.26
61337;BME280;47212;41.326;2.104;2023-01-27T21:13:53;101363.81;;;8.21;59.60
61337;BME280;47212;41.326;2.104;2023-01-27T21:18:55;101364.59;;;8.10;59.02
61337;BME280;47212;41.326;2.104;2023-01-27T21:23:57;101364.94;;;8.02;58.92
61337;BME280;47212;41.326;2.104;2023-01-27T21:29:03;101382.13;;;7.96;59.49
61337;BME280;47212;41.326;2.104;2023-01-27T21:34:06;101378.81;;;7.94;59.44
61337;BME280;47212;41.326;2.104;2023-01-27T21:39:11;101387.50;;;7.84;59.21
61337;BME280;47212;41.326;2.104;2023-01-27T21:44:19;101387.13;;;7.81;58.44
61337;BME280;47212;41.326;2.104;2023-01-27T21:49:43;101385.28;;;7.75;58.69
61337;BME280;47212;41.326;2.104;2023-01-27T21:55:09;101387.84;;;7.70;58.85
61337;BME280;47212;41.326;2.104;2023-01-27T22:00:13;101379.13;;;7.67;58.86
61337;BME280;47212;41.326;2.104;2023-01-27T22:05:24;101368.44;;;7.73;59.77
61337;BME280;47212;41.326;2.104;2023-01-27T22:10:28;101385.66;;;7.78;59.23
61337;BME280;47212;41.326;2.104;2023-01-27T22:15:30;101388.38;;;7.78;59.21
61337;BME280;47212;41.326;2.104;2023-01-27T22:20:32;101395.66;;;7.78;58.84
61337;BME280;47212;41.326;2.104;2023-01-27T22:25:34;101387.41;;;7.73;59.29
61337;BME280;47212;41.326;2.104;2023-01-27T22:30:36;101389.28;;;7.72;58.62
61337;BME280;47212;41.326;2.104;2023-01-27T22:35:40;101402.91;;;7.65;58.89
61337;BME280;47212;41.326;2.104;2023-01-27T22:40:42;101404.19;;;7.63;58.33
61337;BME280;47212;41.326;2.104;2023-01-27T22:45:44;101402.16;;;7.58;58.27
61337;BME280;47212;41.326;2.104;2023-01-27T22:50:45;101405.31;;;7.55;57.77
61337;BME280;47212;41.326;2.104;2023-01-27T22:56:01;101408.50;;;7.52;57.24
61337;BME280;47212;41.326;2.104;2023-01-27T23:01:04;101407.28;;;7.48;56.81
61337;BME280;47212;41.326;2.104;2023-01-27T23:06:07;101409.84;;;7.43;56.52
61337;BME280;47212;41.326;2.104;2023-01-27T23:11:09;101414.50;;;7.36;56.54
61337;BME280;47212;41.326;2.104;2023-01-27T23:16:11;101407.56;;;7.22;55.98
61337;BME280;47212;41.326;2.104;2023-01-27T23:21:16;101409.50;;;7.15;55.79
61337;BME280;47212;41.326;2.104;2023-01-27T23:26:18;101416.03;;;7.07;55.08
61337;BME280;47212;41.326;2.104;2023-01-27T23:31:20;101414.91;;;6.96;54.84
61337;BME280;47212;41.326;2.104;2023-01-27T23:36:22;101413.03;;;6.90;54.98
61337;BME280;47212;41.326;2.104;2023-01-27T23:41:26;101408.53;;;6.84;54.10
61337;BME280;47212;41.326;2.104;2023-01-27T23:46:38;101412.50;;;6.82;54.54
61337;BME280;47212;41.326;2.104;2023-01-27T23:51:40;101405.88;;;6.78;53.56
61337;BME280;47212;41.326;2.104;2023-01-27T23:56:43;101404.59;;;6.80;53.83
